createdAt,value
2022-10-17T00:01:59.161Z,14.93
2022-10-17T00:04:32.272Z,14.32
2022-10-17T00:07:02.094Z,12.60
2022-10-17T00:09:33.211Z,9.35
2022-10-17T00:12:32.420Z,10.13
2022-10-17T00:15:17.370Z,15.60
2022-10-17T00:17:48.230Z,12.07
2022-10-17T00:20:25.982Z,13.70
2022-10-17T00:22:57.388Z,13.93
2022-10-17T00:25:25.873Z,13.80
2022-10-17T00:27:53.937Z,14.52
2022-10-17T00:30:25.036Z,17.50
2022-10-17T00:35:38.530Z,14.75
2022-10-17T00:38:12.440Z,20.90
2022-10-17T00:40:40.510Z,10.57
2022-10-17T00:43:20.558Z,12.65
2022-10-17T00:45:49.252Z,9.70
2022-10-17T00:48:23.318Z,9.48
2022-10-17T00:50:52.154Z,13.38
2022-10-17T00:53:22.885Z,9.45
2022-10-17T00:55:54.326Z,11.20
2022-10-17T00:58:33.459Z,10.15
2022-10-17T01:01:03.168Z,14.40
2022-10-17T01:03:30.999Z,10.45
2022-10-17T01:05:58.642Z,12.00
2022-10-17T01:08:25.928Z,12.20
2022-10-17T01:11:05.965Z,12.85
2022-10-17T01:13:49.925Z,13.35
2022-10-17T01:16:24.678Z,11.55
2022-10-17T01:19:31.056Z,11.73
2022-10-17T01:22:11.650Z,11.77
2022-10-17T01:24:48.795Z,13.20
2022-10-17T01:27:35.953Z,13.70
2022-10-17T01:30:30.692Z,14.10
2022-10-17T01:33:24.265Z,13.20
2022-10-17T01:36:06.752Z,12.95
2022-10-17T01:39:06.151Z,9.95
2022-10-17T01:41:43.126Z,13.45
2022-10-17T01:44:21.911Z,14.27
2022-10-17T01:47:02.579Z,7.68
2022-10-17T01:49:33.358Z,14.10
2022-10-17T01:52:11.647Z,7.50
2022-10-17T01:54:55.537Z,7.07
2022-10-17T01:57:26.578Z,18.88
2022-10-17T02:00:08.437Z,15.10
2022-10-17T02:02:59.400Z,9.00
2022-10-17T02:05:44.577Z,14.43
2022-10-17T02:08:53.135Z,9.85
2022-10-17T02:11:28.067Z,15.95
2022-10-17T02:14:22.223Z,14.48
2022-10-17T02:20:17.582Z,9.63
2022-10-17T02:23:25.394Z,8.48
2022-10-17T02:26:16.702Z,17.95
2022-10-17T02:28:59.823Z,13.60
2022-10-17T02:31:44.942Z,9.98
2022-10-17T02:34:54.401Z,10.63
2022-10-17T02:37:28.524Z,16.98
2022-10-17T02:40:10.055Z,17.73
2022-10-17T02:42:48.716Z,12.57
2022-10-17T02:45:36.809Z,12.90
2022-10-17T02:49:03.549Z,9.45
2022-10-17T02:52:06.129Z,16.38
2022-10-17T02:54:55.457Z,21.90
2022-10-17T02:58:15.113Z,24.00
2022-10-17T03:00:46.211Z,26.77
2022-10-17T03:03:26.175Z,21.00
2022-10-17T03:05:54.214Z,35.88
2022-10-17T03:08:25.164Z,13.25
2022-10-17T03:10:52.545Z,15.82
2022-10-17T03:13:21.385Z,21.42
2022-10-17T03:15:48.687Z,15.68
2022-10-17T03:18:16.215Z,15.25
2022-10-17T03:20:44.597Z,13.90
2022-10-17T03:23:11.880Z,10.60
2022-10-17T03:25:40.251Z,16.15
2022-10-17T03:28:07.497Z,13.18
2022-10-17T03:30:35.158Z,13.45
2022-10-17T03:33:02.620Z,15.82
2022-10-17T03:35:30.594Z,8.43
2022-10-17T03:37:59.023Z,11.80
2022-10-17T03:40:28.040Z,13.32
2022-10-17T03:42:55.175Z,8.48
2022-10-17T03:45:22.448Z,9.98
2022-10-17T03:47:49.892Z,13.65
2022-10-17T03:50:17.233Z,11.80
2022-10-17T03:52:48.604Z,9.70
2022-10-17T03:55:16.670Z,9.77
2022-10-17T03:57:45.518Z,9.93
2022-10-17T04:00:23.642Z,16.98
2022-10-17T04:03:17.119Z,14.35
2022-10-17T04:05:54.698Z,8.20
2022-10-17T04:08:29.367Z,11.05
2022-10-17T04:11:34.877Z,12.60
2022-10-17T04:14:14.246Z,11.13
2022-10-17T04:17:04.270Z,9.20
2022-10-17T04:19:49.567Z,14.00
2022-10-17T04:22:23.023Z,8.93
2022-10-17T04:24:53.978Z,17.08
2022-10-17T04:27:39.745Z,14.73
2022-10-17T04:30:52.139Z,11.13
2022-10-17T04:33:42.918Z,14.68
2022-10-17T04:36:19.135Z,12.05
2022-10-17T04:41:46.553Z,18.98
2022-10-17T04:44:22.105Z,15.50
2022-10-17T04:47:09.274Z,14.38
2022-10-17T04:49:42.694Z,14.02
2022-10-17T04:52:26.866Z,12.43
2022-10-17T04:55:11.833Z,12.95
2022-10-17T04:57:56.687Z,24.15
2022-10-17T05:00:32.827Z,10.23
2022-10-17T05:03:38.139Z,9.73
2022-10-17T05:06:16.320Z,12.18
2022-10-17T05:09:00.605Z,18.15
2022-10-17T05:11:34.307Z,17.63
2022-10-17T05:14:09.101Z,15.40
2022-10-17T05:16:51.955Z,24.10
2022-10-17T05:19:31.202Z,15.98
2022-10-17T05:22:06.481Z,14.63
2022-10-17T05:24:46.613Z,14.85
2022-10-17T05:27:28.377Z,20.05
2022-10-17T05:30:07.313Z,14.68
2022-10-17T05:32:45.467Z,14.75
2022-10-17T05:35:22.324Z,17.23
2022-10-17T05:38:02.360Z,14.50
2022-10-17T05:40:42.901Z,11.20
2022-10-17T05:43:16.611Z,19.48
2022-10-17T05:45:59.631Z,9.05
2022-10-17T05:48:30.878Z,15.70
2022-10-17T05:51:17.377Z,17.15
2022-10-17T05:53:45.505Z,15.77
2022-10-17T05:56:20.941Z,13.27
2022-10-17T05:58:52.371Z,14.80
2022-10-17T06:01:46.267Z,13.48
2022-10-17T06:04:14.024Z,24.55
2022-10-17T06:06:41.917Z,22.08
2022-10-17T06:09:14.071Z,12.10
2022-10-17T06:11:48.293Z,12.73
2022-10-17T06:14:17.275Z,14.00
2022-10-17T06:16:45.336Z,14.40
2022-10-17T06:19:13.473Z,12.85
2022-10-17T06:21:44.103Z,13.20
2022-10-17T06:24:19.672Z,14.68
2022-10-17T06:26:48.330Z,14.38
2022-10-17T06:29:16.695Z,15.65
2022-10-17T06:31:51.137Z,13.90
2022-10-17T06:34:20.484Z,10.02
2022-10-17T06:36:48.993Z,15.88
2022-10-17T06:39:22.051Z,20.90
2022-10-17T06:42:02.609Z,23.47
2022-10-17T06:44:55.055Z,19.77
2022-10-17T06:47:45.193Z,19.30
2022-10-17T06:50:36.526Z,18.25
2022-10-17T06:53:18.102Z,21.98
2022-10-17T06:56:08.245Z,16.23
2022-10-17T06:58:56.276Z,19.85
2022-10-17T07:01:34.913Z,14.75
2022-10-17T07:04:08.266Z,18.58
2022-10-17T07:06:36.309Z,24.42
2022-10-17T07:09:13.801Z,19.75
2022-10-17T07:11:41.617Z,15.55
2022-10-17T07:14:11.192Z,14.52
2022-10-17T07:16:39.353Z,15.80
2022-10-17T07:19:19.635Z,13.02
2022-10-17T07:21:50.600Z,16.45
2022-10-17T07:24:20.992Z,14.13
2022-10-17T07:26:54.665Z,22.27
2022-10-17T07:29:22.493Z,16.17
2022-10-17T07:34:39.590Z,27.40
2022-10-17T07:37:10.465Z,25.23
2022-10-17T07:39:40.564Z,16.90
2022-10-17T07:42:08.499Z,23.55
2022-10-17T07:44:38.463Z,36.15
2022-10-17T07:47:06.945Z,14.75
2022-10-17T07:49:43.306Z,28.85
2022-10-17T07:52:12.690Z,23.02
2022-10-17T07:54:40.780Z,16.02
2022-10-17T07:57:09.538Z,30.10
2022-10-17T07:59:38.763Z,27.17
2022-10-17T08:02:08.678Z,14.30
2022-10-17T08:04:37.027Z,23.98
2022-10-17T08:07:19.594Z,19.88
2022-10-17T08:09:50.009Z,14.93
2022-10-17T08:12:18.533Z,17.40
2022-10-17T08:14:47.471Z,15.48
2022-10-17T08:17:16.369Z,12.27
2022-10-17T08:19:45.951Z,19.15
2022-10-17T08:22:14.197Z,17.63
2022-10-17T08:24:43.549Z,19.98
2022-10-17T08:27:14.283Z,22.80
2022-10-17T08:29:43.923Z,16.02
2022-10-17T08:32:12.506Z,26.17
2022-10-17T08:34:40.696Z,13.52
2022-10-17T08:37:08.445Z,21.83
2022-10-17T08:39:36.242Z,24.58
2022-10-17T08:42:06.606Z,20.17
2022-10-17T08:44:52.535Z,23.92
2022-10-17T08:47:29.994Z,42.25
2022-10-17T08:50:04.102Z,24.80
2022-10-17T08:52:43.328Z,25.13
2022-10-17T08:55:23.169Z,36.47
2022-10-17T08:57:53.450Z,28.75
2022-10-17T09:00:22.644Z,25.58
2022-10-17T09:03:08.429Z,25.60
2022-10-17T09:05:54.637Z,21.63
2022-10-17T09:08:47.933Z,25.88
2022-10-17T09:11:52.713Z,31.05
2022-10-17T09:14:32.210Z,25.30
2022-10-17T09:17:21.941Z,26.15
2022-10-17T09:20:10.958Z,27.45
2022-10-17T09:22:49.704Z,23.63
2022-10-17T09:25:20.195Z,23.23
2022-10-17T09:27:52.159Z,26.27
2022-10-17T09:30:50.379Z,29.52
2022-10-17T09:33:54.008Z,27.13
2022-10-17T09:36:39.932Z,23.35
2022-10-17T09:39:18.565Z,20.73
2022-10-17T09:41:54.155Z,16.63
2022-10-17T09:44:31.541Z,12.93
2022-10-17T09:47:31.895Z,20.35
2022-10-17T09:50:05.674Z,21.80
2022-10-17T09:52:43.614Z,22.50
2022-10-17T09:55:38.685Z,15.13
2022-10-17T09:58:09.517Z,25.17
2022-10-17T10:00:45.564Z,24.67
2022-10-17T10:03:21.020Z,17.10
2022-10-17T10:06:01.347Z,17.60
2022-10-17T10:08:53.156Z,16.55
2022-10-17T10:11:27.604Z,17.90
2022-10-17T10:14:16.249Z,19.23
2022-10-17T10:16:51.116Z,15.98
2022-10-17T10:19:39.029Z,18.52
2022-10-17T10:22:24.309Z,19.77
2022-10-17T10:25:20.596Z,23.85
2022-10-17T10:27:49.454Z,18.05
2022-10-17T10:30:36.133Z,22.25
2022-10-17T10:33:09.516Z,16.48
2022-10-17T10:35:43.714Z,15.40
2022-10-17T10:38:18.397Z,25.05
2022-10-17T10:40:53.031Z,15.70
2022-10-17T10:43:41.645Z,16.17
2022-10-17T10:46:18.337Z,22.52
2022-10-17T10:49:00.835Z,21.02
2022-10-17T10:51:33.213Z,27.25
2022-10-17T10:54:16.241Z,16.08
2022-10-17T10:56:53.631Z,16.08
2022-10-17T10:59:38.699Z,16.63
2022-10-17T11:02:28.437Z,16.52
2022-10-17T11:05:14.254Z,15.23
2022-10-17T11:07:59.737Z,25.27
2022-10-17T11:10:51.213Z,14.45
2022-10-17T11:13:30.913Z,17.42
2022-10-17T11:16:19.361Z,18.52
2022-10-17T11:19:03.718Z,17.02
2022-10-17T11:21:38.201Z,18.90
2022-10-17T11:24:09.478Z,13.55
2022-10-17T11:27:15.559Z,15.45
2022-10-17T11:29:47.611Z,13.45
2022-10-17T11:32:33.410Z,22.77
2022-10-17T11:35:39.559Z,14.18
2022-10-17T11:38:33.032Z,19.65
2022-10-17T11:41:08.052Z,14.90
2022-10-17T11:43:56.554Z,13.60
2022-10-17T11:46:33.779Z,13.48
2022-10-17T11:49:20.663Z,6.78
2022-10-17T11:52:02.953Z,18.70
2022-10-17T11:54:49.634Z,16.42
2022-10-17T11:57:43.537Z,29.52
2022-10-17T12:03:31.356Z,18.00
2022-10-17T12:06:16.425Z,20.80
2022-10-17T12:09:09.172Z,17.08
2022-10-17T12:12:09.268Z,15.10
2022-10-17T12:14:47.091Z,14.43
2022-10-17T12:17:35.703Z,15.70
2022-10-17T12:20:37.100Z,15.38
2022-10-17T12:23:18.183Z,21.95
2022-10-17T12:25:51.864Z,20.70
2022-10-17T12:28:44.887Z,17.02
2022-10-17T12:31:23.911Z,19.20
2022-10-17T12:33:57.622Z,12.35
2022-10-17T12:36:32.448Z,21.23
2022-10-17T12:39:09.547Z,20.13
2022-10-17T12:41:41.347Z,9.65
2022-10-17T12:44:15.185Z,13.02
2022-10-17T12:47:11.220Z,18.45
2022-10-17T12:49:46.046Z,15.75
2022-10-17T12:52:27.462Z,10.63
2022-10-17T12:55:13.486Z,16.90
2022-10-17T12:57:50.481Z,24.45
2022-10-17T13:01:19.104Z,12.98
2022-10-17T13:03:49.205Z,15.93
2022-10-17T13:06:22.341Z,23.70
2022-10-17T13:11:37.050Z,21.58
2022-10-17T13:14:13.381Z,15.35
2022-10-17T13:16:58.595Z,20.08
2022-10-17T13:19:32.674Z,18.60
2022-10-17T13:22:06.903Z,11.82
2022-10-17T13:24:44.073Z,33.20
2022-10-17T13:27:31.782Z,20.10
2022-10-17T13:30:21.036Z,19.92
2022-10-17T13:32:52.273Z,16.58
2022-10-17T13:35:55.370Z,21.83
2022-10-17T13:38:26.196Z,14.85
2022-10-17T13:41:01.680Z,22.42
2022-10-17T13:43:39.561Z,16.85
2022-10-17T13:46:32.600Z,21.77
2022-10-17T13:49:03.642Z,22.95
2022-10-17T13:51:34.594Z,14.70
2022-10-17T13:54:02.563Z,19.80
2022-10-17T13:56:32.615Z,21.85
2022-10-17T13:59:22.246Z,21.45
2022-10-17T14:01:53.244Z,19.67
2022-10-17T14:04:22.313Z,17.38
2022-10-17T14:06:52.224Z,15.50
2022-10-17T14:09:27.840Z,20.13
2022-10-17T14:12:11.991Z,21.85
2022-10-17T14:17:39.277Z,20.30
2022-10-17T14:25:51.296Z,11.82
2022-10-17T14:28:23.943Z,21.67
2022-10-17T14:30:57.574Z,17.73
2022-10-17T14:33:34.625Z,19.02
2022-10-17T14:36:07.637Z,18.15
2022-10-17T14:38:39.689Z,21.90
2022-10-17T14:44:16.768Z,22.63
2022-10-17T14:46:50.784Z,16.83
2022-10-17T14:49:33.280Z,16.45
2022-10-17T14:52:27.924Z,17.30
2022-10-17T14:54:57.127Z,15.73
2022-10-17T14:57:29.468Z,17.10
2022-10-17T14:59:59.054Z,16.90
2022-10-17T15:02:29.005Z,21.35
2022-10-17T15:04:56.858Z,15.32
2022-10-17T15:07:24.670Z,20.08
2022-10-17T15:09:54.139Z,50.75
2022-10-17T15:12:28.588Z,43.60
2022-10-17T15:14:57.012Z,21.35
2022-10-17T15:17:30.613Z,27.63
2022-10-17T15:19:59.958Z,19.25
2022-10-17T15:22:30.985Z,21.88
2022-10-17T15:24:59.224Z,19.02
2022-10-17T15:27:34.779Z,23.15
2022-10-17T15:30:05.714Z,26.33
2022-10-17T15:32:33.801Z,20.63
2022-10-17T15:35:01.472Z,22.58
2022-10-17T15:37:37.737Z,26.98
2022-10-17T15:40:07.192Z,26.63
2022-10-17T15:42:35.378Z,15.80
2022-10-17T15:45:04.524Z,18.77
2022-10-17T15:47:34.679Z,19.95
2022-10-17T15:50:07.042Z,14.27
2022-10-17T15:52:38.745Z,19.50
2022-10-17T15:55:09.616Z,13.85
2022-10-17T15:57:45.643Z,15.93
2022-10-17T16:00:20.702Z,25.00
2022-10-17T16:02:50.310Z,18.02
2022-10-17T16:05:26.320Z,28.92
2022-10-17T16:07:55.431Z,25.88
2022-10-17T16:10:24.718Z,24.75
2022-10-17T16:12:53.502Z,23.50
2022-10-17T16:15:25.450Z,23.77
2022-10-17T16:17:54.827Z,21.40
2022-10-17T16:20:27.299Z,24.10
2022-10-17T16:23:01.353Z,18.77
2022-10-17T16:25:30.571Z,13.60
2022-10-17T16:28:00.669Z,17.98
2022-10-17T16:30:34.174Z,18.85
2022-10-17T16:33:07.003Z,21.08
2022-10-17T16:35:37.622Z,26.25
2022-10-17T16:38:07.756Z,21.13
2022-10-17T16:40:41.869Z,16.80
2022-10-17T16:43:18.566Z,18.95
2022-10-17T16:45:47.129Z,17.98
2022-10-17T16:48:21.344Z,28.75
2022-10-17T16:50:51.912Z,22.42
2022-10-17T16:53:23.177Z,19.55
2022-10-17T16:56:06.340Z,26.77
2022-10-17T16:58:35.028Z,20.27
2022-10-17T17:01:08.769Z,27.67
2022-10-17T17:03:39.915Z,19.70
2022-10-17T17:06:10.197Z,20.60
2022-10-17T17:08:38.027Z,16.95
2022-10-17T17:11:11.130Z,19.23
2022-10-17T17:13:39.125Z,16.73
2022-10-17T17:16:14.533Z,38.28
2022-10-17T17:18:43.917Z,26.38
2022-10-17T17:24:10.625Z,25.80
2022-10-17T17:26:39.460Z,22.30
2022-10-17T17:29:07.809Z,29.10
2022-10-17T17:31:36.851Z,17.52
2022-10-17T17:34:08.055Z,17.77
2022-10-17T17:36:37.962Z,23.80
2022-10-17T17:39:11.400Z,22.48
2022-10-17T17:41:40.200Z,17.70
2022-10-17T17:44:15.747Z,18.48
2022-10-17T17:46:46.259Z,20.67
2022-10-17T17:49:15.654Z,24.42
2022-10-17T17:51:47.001Z,19.25
2022-10-17T17:54:15.359Z,29.27
2022-10-17T17:56:44.231Z,30.02
2022-10-17T17:59:14.069Z,27.88
2022-10-17T18:01:44.053Z,24.30
2022-10-17T18:04:17.166Z,25.33
2022-10-17T18:06:46.284Z,37.15
2022-10-17T18:09:17.478Z,31.30
2022-10-17T18:11:45.549Z,23.55
2022-10-17T18:14:19.827Z,26.42
2022-10-17T18:16:48.114Z,35.05
2022-10-17T18:19:16.349Z,18.98
2022-10-17T18:21:46.998Z,26.45
2022-10-17T18:24:23.475Z,22.60
2022-10-17T18:27:03.767Z,37.65
2022-10-17T18:29:42.501Z,36.60
2022-10-17T18:32:17.468Z,29.65
2022-10-17T18:35:05.670Z,28.48
2022-10-17T18:37:45.856Z,25.65
2022-10-17T18:40:17.430Z,31.80
2022-10-17T18:42:51.868Z,26.40
2022-10-17T18:48:13.042Z,28.00
2022-10-17T18:50:53.086Z,28.17
2022-10-17T18:53:54.601Z,30.98
2022-10-17T18:56:28.864Z,28.27
2022-10-17T18:58:59.065Z,31.60
2022-10-17T19:01:37.884Z,20.55
2022-10-17T19:04:14.630Z,25.50
2022-10-17T19:06:48.438Z,22.30
2022-10-17T19:11:59.322Z,23.40
2022-10-17T19:14:41.478Z,24.30
2022-10-17T19:17:16.211Z,30.60
2022-10-17T19:19:59.207Z,27.58
2022-10-17T19:22:28.864Z,26.63
2022-10-17T19:28:22.943Z,32.15
2022-10-17T19:30:54.548Z,32.80
2022-10-17T19:33:22.435Z,25.60
2022-10-17T19:35:59.890Z,21.40
2022-10-17T19:38:35.585Z,32.53
2022-10-17T19:41:18.229Z,27.65
2022-10-17T19:43:47.045Z,32.97
2022-10-17T19:46:21.383Z,20.85
2022-10-17T19:48:50.242Z,22.38
2022-10-17T19:51:21.490Z,21.80
2022-10-17T19:53:50.796Z,26.13
2022-10-17T19:56:26.448Z,27.52
2022-10-17T19:59:00.159Z,23.10
2022-10-17T20:01:37.331Z,25.33
2022-10-17T20:04:12.093Z,39.15
2022-10-17T20:06:44.900Z,19.88
2022-10-17T20:09:18.295Z,23.20
2022-10-17T20:14:22.514Z,22.20
2022-10-17T20:16:53.361Z,30.73
2022-10-17T20:19:28.293Z,37.78
2022-10-17T20:21:57.857Z,24.80
2022-10-17T20:24:29.488Z,18.08
2022-10-17T20:26:58.023Z,26.77
2022-10-17T20:29:32.199Z,29.98
2022-10-17T20:34:51.694Z,33.97
2022-10-17T20:37:23.398Z,40.88
2022-10-17T20:40:16.491Z,40.42
2022-10-17T20:42:52.144Z,21.08
2022-10-17T20:45:43.631Z,28.13
2022-10-17T20:48:21.530Z,28.10
2022-10-17T20:51:01.810Z,29.55
2022-10-17T20:53:49.042Z,31.42
2022-10-17T20:59:23.926Z,30.42
2022-10-17T21:02:11.407Z,37.67
2022-10-17T21:04:54.302Z,28.63
2022-10-17T21:07:27.947Z,23.17
2022-10-17T21:10:30.709Z,18.92
2022-10-17T21:13:09.020Z,36.78
2022-10-17T21:16:00.102Z,30.13
2022-10-17T21:18:35.613Z,23.88
2022-10-17T21:21:36.799Z,26.88
2022-10-17T21:24:25.291Z,26.45
2022-10-17T21:26:58.278Z,30.77
2022-10-17T21:33:04.897Z,32.75
2022-10-17T21:35:56.949Z,31.15
2022-10-17T21:38:41.771Z,23.08
2022-10-17T21:44:05.256Z,17.90
2022-10-17T21:50:08.883Z,25.17
2022-10-17T21:55:42.394Z,28.83
2022-10-17T21:58:26.138Z,30.67
2022-10-17T22:07:51.081Z,19.55
2022-10-17T22:13:39.798Z,32.03
2022-10-17T22:16:21.248Z,26.60
2022-10-17T22:19:06.492Z,30.02
2022-10-17T22:25:14.055Z,33.42
2022-10-17T22:27:51.778Z,23.60
2022-10-17T22:33:13.708Z,26.85
2022-10-17T22:36:19.889Z,19.00
2022-10-17T22:39:04.697Z,27.90
2022-10-17T22:41:49.725Z,33.85
2022-10-17T22:44:43.441Z,37.20
2022-10-17T22:47:23.600Z,27.10
2022-10-17T22:49:52.525Z,21.67
2022-10-17T22:52:22.820Z,29.05
2022-10-17T22:54:58.058Z,29.20
2022-10-17T22:57:39.249Z,30.95
2022-10-17T23:00:13.160Z,22.70
2022-10-17T23:02:41.983Z,23.40
2022-10-17T23:05:15.162Z,27.08
2022-10-17T23:10:20.436Z,27.83
2022-10-17T23:12:51.573Z,28.05
2022-10-17T23:15:19.552Z,28.52
2022-10-17T23:17:48.646Z,26.60
2022-10-17T23:20:18.707Z,19.85
2022-10-17T23:22:47.304Z,25.35
2022-10-17T23:25:15.567Z,24.98
2022-10-17T23:27:44.248Z,18.05
2022-10-17T23:30:14.823Z,29.77
2022-10-17T23:32:43.093Z,31.63
2022-10-17T23:35:13.837Z,28.92
2022-10-17T23:37:41.677Z,33.90
2022-10-17T23:40:12.978Z,26.50
2022-10-17T23:42:40.832Z,32.03
2022-10-17T23:45:09.121Z,28.13
2022-10-17T23:47:37.157Z,24.52
2022-10-17T23:50:11.918Z,22.50
2022-10-17T23:52:40.216Z,32.28
2022-10-17T23:55:11.974Z,26.85
